createdAt,value
2019-01-29T00:01:29.616Z,51.90
2019-01-29T00:04:01.141Z,49.93
2019-01-29T00:06:33.928Z,51.57
2019-01-29T00:09:09.732Z,51.27
2019-01-29T00:11:41.603Z,52.40
2019-01-29T00:14:12.968Z,51.13
2019-01-29T00:16:44.352Z,51.93
2019-01-29T00:19:15.691Z,55.27
2019-01-29T00:21:47.034Z,54.90
2019-01-29T00:24:18.313Z,53.73
2019-01-29T00:26:50.768Z,52.87
2019-01-29T00:29:22.144Z,55.27
2019-01-29T00:31:53.576Z,52.57
2019-01-29T00:34:24.933Z,49.93
2019-01-29T00:36:56.876Z,47.60
2019-01-29T00:39:28.587Z,50.50
2019-01-29T00:42:01.233Z,49.03
2019-01-29T00:44:34.522Z,51.30
2019-01-29T00:47:05.824Z,50.83
2019-01-29T00:49:37.717Z,53.03
2019-01-29T00:52:09.118Z,49.80
2019-01-29T00:54:40.780Z,50.23
2019-01-29T00:57:12.129Z,52.23
2019-01-29T00:59:43.441Z,53.83
2019-01-29T01:02:14.681Z,56.60
2019-01-29T01:04:45.899Z,54.20
2019-01-29T01:07:17.300Z,55.30
2019-01-29T01:09:56.797Z,55.77
2019-01-29T01:12:21.944Z,52.43
2019-01-29T01:14:53.317Z,54.33
2019-01-29T01:17:24.545Z,55.83
2019-01-29T01:19:55.937Z,54.97
2019-01-29T01:22:27.431Z,56.70
2019-01-29T01:24:58.722Z,59.27
2019-01-29T01:27:30.363Z,58.57
2019-01-29T01:30:02.034Z,64.47
2019-01-29T01:32:36.075Z,56.13
2019-01-29T01:35:07.489Z,63.77
2019-01-29T01:37:40.120Z,67.57
2019-01-29T01:40:15.061Z,87.67
2019-01-29T01:42:47.541Z,71.07
2019-01-29T01:45:18.753Z,70.73
2019-01-29T01:47:50.470Z,60.27
2019-01-29T01:50:21.866Z,61.53
2019-01-29T01:52:59.169Z,61.27
2019-01-29T01:55:25.584Z,64.37
2019-01-29T01:57:56.857Z,61.17
2019-01-29T02:00:28.252Z,68.23
2019-01-29T02:02:59.996Z,66.17
2019-01-29T02:05:31.815Z,69.13
2019-01-29T02:08:03.294Z,66.33
2019-01-29T02:10:34.757Z,68.80
2019-01-29T02:13:06.484Z,68.97
2019-01-29T02:15:37.757Z,64.70
2019-01-29T02:18:09.199Z,67.07
2019-01-29T02:20:40.702Z,66.13
2019-01-29T02:23:12.165Z,67.07
2019-01-29T02:25:43.959Z,73.30
2019-01-29T02:28:15.394Z,70.20
2019-01-29T02:30:47.192Z,67.23
2019-01-29T02:33:18.476Z,66.23
2019-01-29T02:35:49.740Z,67.30
2019-01-29T02:38:21.856Z,66.73
2019-01-29T02:40:53.118Z,70.23
2019-01-29T02:43:25.932Z,63.00
2019-01-29T02:45:58.184Z,66.10
2019-01-29T02:48:29.965Z,67.17
2019-01-29T02:51:01.168Z,67.03
2019-01-29T02:53:33.159Z,68.60
2019-01-29T02:56:04.624Z,70.10
2019-01-29T02:58:36.539Z,66.97
2019-01-29T03:01:07.264Z,68.63
2019-01-29T03:03:39.468Z,66.60
2019-01-29T03:06:10.978Z,65.53
2019-01-29T03:08:43.412Z,65.27
2019-01-29T03:11:14.799Z,67.47
2019-01-29T03:13:46.027Z,70.07
2019-01-29T03:16:17.317Z,67.70
2019-01-29T03:18:48.760Z,68.70
2019-01-29T03:21:20.072Z,69.47
2019-01-29T03:23:51.508Z,66.53
2019-01-29T03:26:22.846Z,65.20
2019-01-29T03:28:54.482Z,70.60
2019-01-29T03:31:25.878Z,68.17
2019-01-29T03:33:56.908Z,66.10
2019-01-29T03:36:28.263Z,65.50
2019-01-29T03:38:59.441Z,67.53
2019-01-29T03:41:30.688Z,66.03
2019-01-29T03:44:03.710Z,67.83
2019-01-29T03:46:35.140Z,63.10
2019-01-29T03:49:06.526Z,69.13
2019-01-29T03:51:38.286Z,69.10
2019-01-29T03:54:09.992Z,66.83
2019-01-29T03:56:41.425Z,66.77
2019-01-29T03:59:12.741Z,71.93
2019-01-29T04:01:43.922Z,66.97
2019-01-29T04:04:15.293Z,70.33
2019-01-29T04:06:46.056Z,65.63
2019-01-29T04:09:17.176Z,67.67
2019-01-29T04:11:48.550Z,66.97
2019-01-29T04:14:20.187Z,64.67
2019-01-29T04:16:51.483Z,66.40
2019-01-29T04:19:22.212Z,66.47
2019-01-29T04:21:53.452Z,67.13
2019-01-29T04:24:24.743Z,63.27
2019-01-29T04:26:55.515Z,62.53
2019-01-29T04:29:26.731Z,62.83
2019-01-29T04:31:58.018Z,61.47
2019-01-29T04:34:30.053Z,63.77
2019-01-29T04:37:01.144Z,61.50
2019-01-29T04:39:32.338Z,62.57
2019-01-29T04:42:03.803Z,59.63
2019-01-29T04:44:36.929Z,60.07
2019-01-29T04:47:08.488Z,60.87
2019-01-29T04:49:41.339Z,60.33
2019-01-29T04:52:12.638Z,60.20
2019-01-29T04:54:44.018Z,58.03
2019-01-29T04:57:15.495Z,60.70
2019-01-29T04:59:46.772Z,58.30
2019-01-29T05:02:18.048Z,57.13
2019-01-29T05:04:50.227Z,58.10
2019-01-29T05:07:21.496Z,56.53
2019-01-29T05:09:52.857Z,57.10
2019-01-29T05:12:23.634Z,56.37
2019-01-29T05:14:54.870Z,54.80
2019-01-29T05:17:31.922Z,54.37
2019-01-29T05:20:02.870Z,56.07
2019-01-29T05:22:37.206Z,54.03
2019-01-29T05:25:09.593Z,54.20
2019-01-29T05:27:41.686Z,55.90
2019-01-29T05:30:20.453Z,55.93
2019-01-29T05:33:02.729Z,55.10
2019-01-29T05:35:37.462Z,53.67
2019-01-29T05:41:20.851Z,55.60
2019-01-29T05:43:52.141Z,55.33
2019-01-29T05:46:25.599Z,52.40
2019-01-29T05:48:56.355Z,55.00
2019-01-29T05:51:30.824Z,53.43
2019-01-29T05:54:03.985Z,53.07
2019-01-29T05:56:38.140Z,50.63
2019-01-29T05:59:08.962Z,52.67
2019-01-29T06:01:43.549Z,52.10
2019-01-29T06:04:14.217Z,53.07
2019-01-29T06:06:44.854Z,52.67
2019-01-29T06:09:15.431Z,53.90
2019-01-29T06:11:45.944Z,51.70
2019-01-29T06:14:16.554Z,53.73
2019-01-29T06:16:47.665Z,54.07
2019-01-29T06:19:18.901Z,54.33
2019-01-29T06:21:50.319Z,51.43
2019-01-29T06:24:25.791Z,51.57
2019-01-29T06:26:55.107Z,51.20
2019-01-29T06:29:26.650Z,52.60
2019-01-29T06:32:00.490Z,53.57
2019-01-29T06:34:31.259Z,53.60
2019-01-29T06:37:02.946Z,51.60
2019-01-29T06:39:33.420Z,50.80
2019-01-29T06:42:07.093Z,51.57
2019-01-29T06:44:38.397Z,52.70
2019-01-29T06:47:11.167Z,50.27
2019-01-29T06:49:42.164Z,51.40
2019-01-29T06:52:13.435Z,51.60
2019-01-29T06:54:44.819Z,52.80
2019-01-29T06:57:16.131Z,53.20
2019-01-29T06:59:48.157Z,52.43
2019-01-29T07:02:19.180Z,52.77
2019-01-29T07:04:50.541Z,54.13
2019-01-29T07:07:21.828Z,54.27
2019-01-29T07:10:01.505Z,52.57
2019-01-29T07:12:33.827Z,53.40
2019-01-29T07:15:05.289Z,54.33
2019-01-29T07:17:39.783Z,53.67
2019-01-29T07:20:11.829Z,51.73
2019-01-29T07:22:44.150Z,53.10
2019-01-29T07:25:15.419Z,54.20
2019-01-29T07:27:48.600Z,52.53
2019-01-29T07:30:19.980Z,51.70
2019-01-29T07:32:51.706Z,54.07
2019-01-29T07:35:22.416Z,54.33
2019-01-29T07:37:55.167Z,50.77
2019-01-29T07:40:26.418Z,52.33
2019-01-29T07:42:57.833Z,53.70
2019-01-29T07:45:29.233Z,52.27
2019-01-29T07:48:01.031Z,53.33
2019-01-29T07:50:34.591Z,52.77
2019-01-29T07:53:08.337Z,50.60
2019-01-29T07:55:39.904Z,52.13
2019-01-29T07:58:11.309Z,53.03
2019-01-29T08:00:42.427Z,53.17
2019-01-29T08:03:13.999Z,53.83
2019-01-29T08:05:46.535Z,54.47
2019-01-29T08:08:17.956Z,54.33
2019-01-29T08:10:49.540Z,55.87
2019-01-29T08:13:20.831Z,55.77
2019-01-29T08:15:52.439Z,53.37
2019-01-29T08:18:23.905Z,53.87
2019-01-29T08:20:55.542Z,54.07
2019-01-29T08:23:26.871Z,54.13
2019-01-29T08:25:58.135Z,54.77
2019-01-29T08:28:29.998Z,53.97
2019-01-29T08:31:01.429Z,55.70
2019-01-29T08:33:32.704Z,54.23
2019-01-29T08:36:03.456Z,51.97
2019-01-29T08:38:36.293Z,55.50
2019-01-29T08:41:07.589Z,51.60
2019-01-29T08:43:39.480Z,54.57
2019-01-29T08:46:11.121Z,53.70
2019-01-29T08:48:44.124Z,53.87
2019-01-29T08:51:22.970Z,53.90
2019-01-29T09:00:05.134Z,55.30
2019-01-29T09:08:26.688Z,53.60
2019-01-29T09:10:58.112Z,56.67
2019-01-29T09:13:29.553Z,57.27
2019-01-29T09:16:00.889Z,54.27
2019-01-29T09:18:32.525Z,55.37
2019-01-29T09:21:03.305Z,54.20
2019-01-29T09:32:52.484Z,51.80
2019-01-29T09:35:23.757Z,47.93
2019-01-29T09:37:56.193Z,48.57
2019-01-29T09:40:27.806Z,49.70
2019-01-29T09:42:59.191Z,51.47
2019-01-29T09:45:30.613Z,51.43
2019-01-29T09:48:03.276Z,50.17
2019-01-29T09:50:35.060Z,48.07
2019-01-29T09:53:07.622Z,50.57
2019-01-29T09:55:40.126Z,49.33
2019-01-29T09:58:11.780Z,50.77
2019-01-29T10:00:44.549Z,47.03
2019-01-29T10:03:15.868Z,47.33
2019-01-29T10:05:47.353Z,46.37
2019-01-29T10:08:18.884Z,46.00
2019-01-29T10:10:51.174Z,45.57
2019-01-29T10:13:23.137Z,44.23
2019-01-29T10:15:54.485Z,45.70
2019-01-29T10:18:26.088Z,47.80
2019-01-29T10:20:57.724Z,43.10
2019-01-29T10:23:29.011Z,43.43
2019-01-29T10:26:00.395Z,41.67
2019-01-29T10:28:32.278Z,42.13
2019-01-29T10:31:03.726Z,42.80
2019-01-29T10:33:35.367Z,38.97
2019-01-29T10:36:07.810Z,37.77
2019-01-29T10:38:40.114Z,37.33
2019-01-29T10:41:11.094Z,39.83
2019-01-29T10:43:41.809Z,34.37
2019-01-29T10:46:12.872Z,34.70
2019-01-29T10:48:43.682Z,36.63
2019-01-29T10:51:15.405Z,36.40
2019-01-29T10:53:46.895Z,35.20
2019-01-29T10:56:18.347Z,33.17
2019-01-29T10:58:49.621Z,32.27
2019-01-29T11:01:21.127Z,30.47
2019-01-29T11:03:52.615Z,28.87
2019-01-29T11:06:23.983Z,27.70
2019-01-29T11:08:55.212Z,26.33
2019-01-29T11:11:28.127Z,29.63
2019-01-29T11:13:59.753Z,27.63
2019-01-29T11:16:31.479Z,26.77
2019-01-29T11:19:03.658Z,27.37
2019-01-29T11:21:35.423Z,27.23
2019-01-29T11:24:07.003Z,26.43
2019-01-29T11:26:38.378Z,25.60
2019-01-29T11:29:09.905Z,25.77
2019-01-29T11:31:41.447Z,26.73
2019-01-29T11:34:12.857Z,25.60
2019-01-29T11:36:44.105Z,24.40
2019-01-29T11:39:15.633Z,23.60
2019-01-29T11:41:46.904Z,24.03
2019-01-29T11:44:18.317Z,23.80
2019-01-29T11:46:49.629Z,21.53
2019-01-29T11:49:21.107Z,21.20
2019-01-29T11:51:54.751Z,20.87
2019-01-29T11:54:26.188Z,20.33
2019-01-29T12:00:15.337Z,20.37
2019-01-29T12:02:47.016Z,20.17
2019-01-29T12:05:18.262Z,19.17
2019-01-29T12:07:50.090Z,20.87
2019-01-29T12:10:22.153Z,19.67
2019-01-29T12:12:53.634Z,18.93
2019-01-29T12:15:25.024Z,18.33
2019-01-29T12:17:57.371Z,17.83
2019-01-29T12:20:28.732Z,17.23
2019-01-29T12:23:00.108Z,18.67
2019-01-29T12:25:31.838Z,17.67
2019-01-29T12:28:03.354Z,16.17
2019-01-29T12:30:35.673Z,17.50
2019-01-29T12:33:08.696Z,17.33
2019-01-29T12:35:40.147Z,17.20
2019-01-29T12:38:11.702Z,15.40
2019-01-29T12:40:42.981Z,15.80
2019-01-29T12:43:15.435Z,15.23
2019-01-29T12:45:48.412Z,15.97
2019-01-29T12:48:19.793Z,16.40
2019-01-29T12:51:01.466Z,14.67
2019-01-29T12:53:38.344Z,13.33
2019-01-29T12:56:09.714Z,13.47
2019-01-29T12:58:42.006Z,14.03
2019-01-29T13:01:13.304Z,13.10
2019-01-29T13:03:44.590Z,13.00
2019-01-29T13:06:15.969Z,12.80
2019-01-29T13:08:47.349Z,13.67
2019-01-29T13:11:18.734Z,13.30
2019-01-29T13:13:50.223Z,13.50
2019-01-29T13:16:21.730Z,13.43
2019-01-29T13:18:53.400Z,12.73
2019-01-29T13:21:24.924Z,16.33
2019-01-29T13:23:56.225Z,14.70
2019-01-29T13:26:30.175Z,16.03
2019-01-29T13:29:00.829Z,16.97
2019-01-29T13:31:32.284Z,14.30
2019-01-29T13:34:03.485Z,13.53
2019-01-29T13:36:34.970Z,14.13
2019-01-29T13:39:09.301Z,14.23
2019-01-29T13:41:41.799Z,13.20
2019-01-29T13:44:13.103Z,13.33
2019-01-29T13:46:44.349Z,14.43
2019-01-29T13:49:15.652Z,13.63
2019-01-29T13:51:47.045Z,14.13
2019-01-29T13:54:18.517Z,16.37
2019-01-29T13:56:50.255Z,14.87
2019-01-29T13:59:21.645Z,16.73
2019-01-29T14:01:53.064Z,16.03
2019-01-29T14:04:24.329Z,17.00
2019-01-29T14:06:55.874Z,16.70
2019-01-29T14:09:27.430Z,16.53
2019-01-29T14:11:59.305Z,16.57
2019-01-29T14:14:35.292Z,18.13
2019-01-29T14:17:09.180Z,16.47
2019-01-29T14:19:40.502Z,17.57
2019-01-29T14:22:11.793Z,16.73
2019-01-29T14:24:44.225Z,18.03
2019-01-29T14:27:15.728Z,19.90
2019-01-29T14:29:47.075Z,16.97
2019-01-29T14:32:17.816Z,47.87
2019-01-29T14:34:48.975Z,36.93
2019-01-29T14:37:20.525Z,37.83
2019-01-29T14:40:20.678Z,37.60
2019-01-29T14:42:53.572Z,35.07
2019-01-29T14:45:26.564Z,35.63
2019-01-29T14:47:58.007Z,32.47
2019-01-29T14:50:29.467Z,30.37
2019-01-29T14:53:00.865Z,29.13
2019-01-29T14:55:33.215Z,27.27
2019-01-29T14:58:04.522Z,25.53
2019-01-29T15:00:37.501Z,26.33
2019-01-29T15:03:09.103Z,25.73
2019-01-29T15:05:40.355Z,24.03
2019-01-29T15:08:11.873Z,23.33
2019-01-29T15:10:43.527Z,23.23
2019-01-29T15:13:14.817Z,23.60
2019-01-29T15:15:50.124Z,21.50
2019-01-29T15:18:34.021Z,21.07
2019-01-29T15:21:05.248Z,20.40
2019-01-29T15:23:36.913Z,21.57
2019-01-29T15:26:08.431Z,19.70
2019-01-29T15:28:40.500Z,19.10
2019-01-29T15:31:11.814Z,19.93
2019-01-29T15:33:43.505Z,19.97
2019-01-29T15:36:14.781Z,19.43
2019-01-29T15:38:47.562Z,18.63
2019-01-29T15:41:18.958Z,19.20
2019-01-29T15:43:50.397Z,18.30
2019-01-29T15:46:21.663Z,18.50
2019-01-29T15:48:53.057Z,17.40
2019-01-29T15:51:24.391Z,16.93
2019-01-29T15:53:55.783Z,15.93
2019-01-29T15:59:30.841Z,16.73
2019-01-29T16:02:02.964Z,16.97
2019-01-29T16:04:34.356Z,17.77
2019-01-29T16:07:05.874Z,19.43
2019-01-29T16:09:37.080Z,21.53
2019-01-29T16:12:08.745Z,21.67
2019-01-29T16:14:40.545Z,24.10
2019-01-29T16:17:11.894Z,23.57
2019-01-29T16:19:43.357Z,25.10
2019-01-29T16:22:14.561Z,24.13
2019-01-29T16:24:46.325Z,23.63
2019-01-29T16:27:22.625Z,25.83
2019-01-29T16:29:50.887Z,26.77
2019-01-29T16:32:22.605Z,23.73
2019-01-29T16:34:53.993Z,25.23
2019-01-29T16:37:25.405Z,23.70
2019-01-29T16:39:57.543Z,25.20
2019-01-29T16:42:28.941Z,22.03
2019-01-29T16:45:00.968Z,23.73
2019-01-29T16:47:32.560Z,22.00
2019-01-29T16:50:04.582Z,21.90
2019-01-29T16:52:36.961Z,22.57
2019-01-29T16:55:11.085Z,22.87
2019-01-29T16:57:42.658Z,19.67
2019-01-29T17:00:25.113Z,20.97
2019-01-29T17:02:56.702Z,21.30
2019-01-29T17:05:28.216Z,23.30
2019-01-29T17:07:59.721Z,26.37
2019-01-29T17:10:31.509Z,24.37
2019-01-29T17:13:02.706Z,26.37
2019-01-29T17:15:34.204Z,22.27
2019-01-29T17:18:06.717Z,23.03
2019-01-29T17:20:40.348Z,24.80
2019-01-29T17:23:11.412Z,24.87
2019-01-29T17:25:44.113Z,25.50
2019-01-29T17:28:15.424Z,25.50
2019-01-29T17:30:46.853Z,22.60
2019-01-29T17:33:18.515Z,24.23
2019-01-29T17:35:49.817Z,24.27
2019-01-29T17:38:22.737Z,28.53
2019-01-29T17:40:54.083Z,27.37
2019-01-29T17:43:25.360Z,26.07
2019-01-29T17:45:56.932Z,24.70
2019-01-29T17:48:28.193Z,25.80
2019-01-29T17:50:59.528Z,26.67
2019-01-29T17:53:33.318Z,25.73
2019-01-29T17:56:04.533Z,24.90
2019-01-29T17:58:36.958Z,24.53
2019-01-29T18:01:07.552Z,27.60
2019-01-29T18:03:38.688Z,25.47
2019-01-29T18:06:10.039Z,26.80
2019-01-29T18:08:49.679Z,25.10
2019-01-29T18:11:15.749Z,26.33
2019-01-29T18:13:47.003Z,24.10
2019-01-29T18:16:18.655Z,25.07
2019-01-29T18:18:50.188Z,25.10
2019-01-29T18:21:21.483Z,23.97
2019-01-29T18:23:52.859Z,26.90
2019-01-29T18:26:24.478Z,28.13
2019-01-29T18:28:55.858Z,27.27
2019-01-29T18:31:27.151Z,26.67
2019-01-29T18:33:58.452Z,25.93
2019-01-29T18:36:31.135Z,25.70
2019-01-29T18:39:04.068Z,25.37
2019-01-29T18:41:35.441Z,25.20
2019-01-29T18:44:06.722Z,26.10
2019-01-29T18:46:58.869Z,24.87
2019-01-29T18:49:30.880Z,25.37
2019-01-29T18:52:02.470Z,25.63
2019-01-29T18:54:34.629Z,24.20
2019-01-29T18:57:05.928Z,25.13
2019-01-29T18:59:37.522Z,23.30
2019-01-29T19:02:08.955Z,23.03
2019-01-29T19:04:41.865Z,23.73
2019-01-29T19:07:13.083Z,24.00
2019-01-29T19:09:45.421Z,23.23
2019-01-29T19:12:16.672Z,23.03
2019-01-29T19:14:48.342Z,21.97
2019-01-29T19:17:20.030Z,22.07
2019-01-29T19:19:51.432Z,22.20
2019-01-29T19:22:22.837Z,21.10
2019-01-29T19:24:55.859Z,21.87
2019-01-29T19:27:27.416Z,20.60
2019-01-29T19:29:58.739Z,21.37
2019-01-29T19:32:30.477Z,20.67
2019-01-29T19:35:01.914Z,19.97
2019-01-29T19:37:33.521Z,19.20
2019-01-29T19:40:05.919Z,18.60
2019-01-29T19:42:38.507Z,17.93
2019-01-29T19:45:16.876Z,18.53
2019-01-29T19:47:48.485Z,17.73
2019-01-29T19:50:21.871Z,17.53
2019-01-29T19:52:53.379Z,18.70
2019-01-29T19:55:25.807Z,19.43
2019-01-29T19:58:08.353Z,18.70
2019-01-29T20:00:36.089Z,18.13
2019-01-29T20:03:07.821Z,18.87
2019-01-29T20:05:39.129Z,17.77
2019-01-29T20:08:10.609Z,17.53
2019-01-29T20:10:42.132Z,19.33
2019-01-29T20:13:13.482Z,19.33
2019-01-29T20:15:44.889Z,18.77
2019-01-29T20:18:16.215Z,17.63
2019-01-29T20:20:47.735Z,18.40
2019-01-29T20:23:19.307Z,17.57
2019-01-29T20:25:51.057Z,17.13
2019-01-29T20:28:23.507Z,17.50
2019-01-29T20:30:55.002Z,18.03
2019-01-29T20:33:26.257Z,17.00
2019-01-29T20:35:57.893Z,16.07
2019-01-29T20:38:35.066Z,14.70
2019-01-29T20:41:04.830Z,15.57
2019-01-29T20:43:38.071Z,16.10
2019-01-29T20:46:09.990Z,14.60
2019-01-29T20:48:41.718Z,15.37
2019-01-29T20:51:13.237Z,15.97
2019-01-29T20:53:44.565Z,15.67
2019-01-29T20:56:16.401Z,14.43
2019-01-29T20:58:52.683Z,15.20
2019-01-29T21:01:20.795Z,15.23
2019-01-29T21:03:52.448Z,14.73
2019-01-29T21:06:23.692Z,13.37
2019-01-29T21:08:54.976Z,14.60
2019-01-29T21:11:26.599Z,16.10
2019-01-29T21:14:03.680Z,13.90
2019-01-29T21:16:35.421Z,14.60
2019-01-29T21:24:52.051Z,13.47
2019-01-29T21:27:48.848Z,14.67
2019-01-29T21:30:30.442Z,15.80
